createdAt,value
2022-10-20T00:04:54.862Z,8.16
2022-10-20T00:08:00.620Z,8.17
2022-10-20T00:11:06.785Z,8.16
2022-10-20T00:14:12.843Z,8.12
2022-10-20T00:17:18.553Z,8.08
2022-10-20T00:20:24.442Z,8.05
2022-10-20T00:23:30.106Z,8.03
2022-10-20T00:26:35.962Z,8.01
2022-10-20T00:29:42.031Z,8.02
2022-10-20T00:32:49.770Z,8.06
2022-10-20T00:35:55.650Z,8.04
2022-10-20T00:39:05.661Z,7.99
2022-10-20T00:42:15.964Z,7.93
2022-10-20T00:45:23.283Z,7.86
2022-10-20T00:48:33.175Z,7.77
2022-10-20T00:51:39.103Z,7.70
2022-10-20T00:54:44.851Z,7.67
2022-10-20T00:57:53.261Z,7.66
2022-10-20T01:01:00.966Z,7.63
2022-10-20T01:04:07.206Z,7.59
2022-10-20T01:07:13.088Z,7.51
2022-10-20T01:10:19.664Z,7.48
2022-10-20T01:13:37.813Z,7.45
2022-10-20T01:16:55.956Z,7.42
2022-10-20T01:20:46.660Z,7.40
2022-10-20T01:24:38.700Z,7.37
2022-10-20T01:27:46.598Z,7.27
2022-10-20T01:30:58.092Z,7.16
2022-10-20T01:34:09.978Z,7.05
2022-10-20T01:37:34.015Z,6.97
2022-10-20T01:40:51.312Z,6.87
2022-10-20T01:43:57.881Z,6.82
2022-10-20T01:47:05.058Z,6.82
2022-10-20T01:50:13.904Z,6.83
2022-10-20T01:53:20.769Z,6.80
2022-10-20T01:56:36.756Z,6.72
2022-10-20T02:00:01.047Z,6.64
2022-10-20T02:03:34.138Z,6.56
2022-10-20T02:06:51.058Z,6.48
2022-10-20T02:10:01.933Z,6.40
2022-10-20T02:13:11.400Z,6.32
2022-10-20T02:16:21.142Z,6.22
2022-10-20T02:19:34.889Z,6.12
2022-10-20T02:22:42.323Z,6.03
2022-10-20T02:25:50.889Z,5.96
2022-10-20T02:29:01.760Z,5.93
2022-10-20T02:32:09.185Z,5.86
2022-10-20T02:35:19.096Z,5.79
2022-10-20T02:38:24.853Z,5.73
2022-10-20T02:41:31.257Z,5.63
2022-10-20T02:44:36.897Z,5.55
2022-10-20T02:47:42.630Z,5.50
2022-10-20T02:50:48.380Z,5.39
2022-10-20T02:53:55.009Z,5.29
2022-10-20T02:57:00.651Z,5.26
2022-10-20T03:00:08.085Z,5.21
2022-10-20T03:03:13.856Z,5.17
2022-10-20T03:06:19.608Z,5.17
2022-10-20T03:09:25.360Z,5.17
2022-10-20T03:12:32.249Z,5.17
2022-10-20T03:15:38.611Z,5.12
2022-10-20T03:18:44.280Z,5.10
2022-10-20T03:21:49.996Z,5.10
2022-10-20T03:24:55.691Z,5.13
2022-10-20T03:28:01.606Z,5.13
2022-10-20T03:31:07.540Z,5.12
2022-10-20T03:34:13.950Z,5.11
2022-10-20T03:37:19.708Z,5.10
2022-10-20T03:40:25.553Z,5.09
2022-10-20T03:43:31.218Z,5.07
2022-10-20T03:46:36.971Z,5.08
2022-10-20T03:49:43.225Z,5.04
2022-10-20T03:52:48.293Z,5.00
2022-10-20T03:55:54.236Z,4.94
2022-10-20T03:59:00.043Z,4.87
2022-10-20T04:02:06.388Z,4.83
2022-10-20T04:05:12.829Z,4.81
2022-10-20T04:08:18.708Z,4.79
2022-10-20T04:11:27.009Z,4.73
2022-10-20T04:14:32.651Z,4.64
2022-10-20T04:20:45.490Z,4.53
2022-10-20T04:23:51.171Z,4.48
2022-10-20T04:26:56.846Z,4.41
2022-10-20T04:30:02.486Z,4.34
2022-10-20T04:33:08.480Z,4.31
2022-10-20T04:36:15.533Z,4.29
2022-10-20T04:39:21.244Z,4.21
2022-10-20T04:42:27.100Z,4.12
2022-10-20T04:45:32.855Z,4.08
2022-10-20T04:48:39.019Z,4.07
2022-10-20T04:51:44.774Z,4.01
2022-10-20T04:54:50.939Z,3.94
2022-10-20T04:57:56.589Z,3.86
2022-10-20T05:01:06.620Z,3.81
2022-10-20T05:04:13.211Z,3.76
2022-10-20T05:07:18.972Z,3.72
2022-10-20T05:10:24.724Z,3.72
2022-10-20T05:13:30.478Z,3.69
2022-10-20T05:16:36.556Z,3.62
2022-10-20T05:19:42.295Z,3.56
2022-10-20T05:22:48.049Z,3.49
2022-10-20T05:25:53.725Z,3.45
2022-10-20T05:28:59.454Z,3.43
2022-10-20T05:32:05.322Z,3.39
2022-10-20T05:35:12.146Z,3.38
2022-10-20T05:38:17.825Z,3.31
2022-10-20T05:41:25.470Z,3.24
2022-10-20T05:44:31.501Z,3.20
2022-10-20T05:47:37.767Z,3.21
2022-10-20T05:50:43.687Z,3.17
2022-10-20T05:53:49.788Z,3.15
2022-10-20T05:56:55.454Z,3.15
2022-10-20T06:00:01.194Z,3.13
2022-10-20T06:03:07.050Z,3.07
2022-10-20T06:06:12.698Z,3.04
2022-10-20T06:09:19.521Z,3.04
2022-10-20T06:12:25.317Z,3.04
2022-10-20T06:15:30.989Z,2.98
2022-10-20T06:18:38.855Z,3.01
2022-10-20T06:21:44.554Z,3.05
2022-10-20T06:24:50.299Z,3.05
2022-10-20T06:27:56.054Z,3.08
2022-10-20T06:31:02.114Z,3.13
2022-10-20T06:34:10.079Z,3.18
2022-10-20T06:37:15.983Z,3.22
2022-10-20T06:40:22.039Z,3.22
2022-10-20T06:43:28.408Z,3.22
2022-10-20T06:46:36.476Z,3.24
2022-10-20T06:49:42.184Z,3.25
2022-10-20T06:52:47.923Z,3.24
2022-10-20T06:56:00.144Z,3.25
2022-10-20T06:59:06.297Z,3.23
2022-10-20T07:02:13.636Z,3.25
2022-10-20T07:05:19.999Z,3.29
2022-10-20T07:08:24.072Z,3.32
2022-10-20T07:11:32.096Z,3.33
2022-10-20T07:14:37.827Z,3.32
2022-10-20T07:17:43.440Z,3.33
2022-10-20T07:20:49.061Z,3.37
2022-10-20T07:23:56.264Z,3.39
2022-10-20T07:27:01.970Z,3.42
2022-10-20T07:30:09.200Z,3.44
2022-10-20T07:33:14.911Z,3.46
2022-10-20T07:36:23.961Z,3.51
2022-10-20T07:39:29.999Z,3.57
2022-10-20T07:42:35.897Z,3.66
2022-10-20T07:45:41.746Z,3.77
2022-10-20T07:48:47.568Z,3.87
2022-10-20T07:51:53.329Z,3.97
2022-10-20T07:55:07.486Z,4.08
2022-10-20T07:58:25.625Z,4.18
2022-10-20T08:01:31.740Z,4.29
2022-10-20T08:04:37.542Z,4.40
2022-10-20T08:07:43.296Z,4.52
2022-10-20T08:10:49.359Z,4.63
2022-10-20T08:13:55.111Z,4.74
2022-10-20T08:17:03.413Z,4.82
2022-10-20T08:20:16.966Z,4.92
2022-10-20T08:23:22.600Z,5.04
2022-10-20T08:26:29.127Z,5.13
2022-10-20T08:29:34.821Z,5.20
2022-10-20T08:32:40.798Z,5.27
2022-10-20T08:35:46.553Z,5.36
2022-10-20T08:38:52.357Z,5.45
2022-10-20T08:42:08.848Z,5.52
2022-10-20T08:45:19.380Z,5.61
2022-10-20T08:48:28.608Z,5.71
2022-10-20T08:51:38.520Z,5.86
2022-10-20T08:54:44.349Z,5.98
2022-10-20T08:57:50.781Z,6.06
2022-10-20T09:01:00.663Z,6.15
2022-10-20T09:04:22.576Z,6.23
2022-10-20T09:07:33.163Z,6.32
2022-10-20T09:10:42.892Z,6.43
2022-10-20T09:17:00.673Z,6.64
2022-10-20T09:20:13.350Z,6.73
2022-10-20T09:23:39.871Z,6.83
2022-10-20T09:27:03.706Z,6.94
2022-10-20T09:30:22.234Z,7.01
2022-10-20T09:33:31.946Z,7.10
2022-10-20T09:36:38.433Z,7.19
2022-10-20T09:39:55.387Z,7.29
2022-10-20T09:43:03.480Z,7.36
2022-10-20T09:46:12.209Z,7.43
2022-10-20T09:49:29.835Z,7.48
2022-10-20T09:52:47.830Z,7.53
2022-10-20T09:55:54.465Z,7.57
2022-10-20T09:59:00.117Z,7.61
2022-10-20T10:02:26.898Z,7.67
2022-10-20T10:05:35.805Z,7.74
2022-10-20T10:08:48.002Z,7.83
2022-10-20T10:12:00.658Z,7.92
2022-10-20T10:15:20.094Z,7.98
2022-10-20T10:18:26.032Z,8.10
2022-10-20T10:21:44.279Z,8.18
2022-10-20T10:24:52.285Z,8.27
2022-10-20T10:28:04.696Z,8.38
2022-10-20T10:31:23.372Z,8.49
2022-10-20T10:34:55.219Z,8.61
2022-10-20T10:38:01.618Z,8.73
2022-10-20T10:41:09.516Z,8.86
2022-10-20T10:44:21.624Z,8.96
2022-10-20T10:47:41.780Z,9.07
2022-10-20T10:50:52.967Z,9.17
2022-10-20T10:54:12.364Z,9.29
2022-10-20T10:57:32.120Z,9.40
2022-10-20T11:00:49.310Z,9.53
2022-10-20T11:04:27.141Z,9.65
2022-10-20T11:07:43.760Z,9.72
2022-10-20T11:11:01.496Z,9.78
2022-10-20T11:17:47.226Z,9.93
2022-10-20T11:21:02.614Z,10.04
2022-10-20T11:24:21.855Z,10.09
2022-10-20T11:27:32.013Z,10.15
2022-10-20T11:30:37.768Z,10.27
2022-10-20T11:33:48.642Z,10.35
2022-10-20T11:37:01.358Z,10.37
2022-10-20T11:40:17.989Z,10.44
2022-10-20T11:43:28.865Z,10.45
2022-10-20T11:46:39.321Z,10.45
2022-10-20T11:49:57.757Z,10.49
2022-10-20T11:54:00.654Z,10.59
2022-10-20T11:57:30.312Z,10.61
2022-10-20T12:00:59.552Z,10.68
2022-10-20T12:04:34.211Z,10.79
2022-10-20T12:08:29.537Z,10.87
2022-10-20T12:11:43.976Z,10.95
2022-10-20T12:14:57.429Z,11.00
2022-10-20T12:18:07.773Z,11.02
2022-10-20T12:21:14.103Z,11.05
2022-10-20T12:24:40.670Z,11.08
2022-10-20T12:27:46.438Z,11.06
2022-10-20T12:30:59.303Z,11.11
2022-10-20T12:34:05.220Z,11.15
2022-10-20T12:37:19.775Z,11.21
2022-10-20T12:40:31.264Z,11.26
2022-10-20T12:43:54.324Z,11.25
2022-10-20T12:47:05.485Z,11.27
2022-10-20T12:50:35.159Z,11.27
2022-10-20T12:53:41.526Z,11.25
2022-10-20T12:56:47.882Z,11.27
2022-10-20T12:59:53.816Z,11.27
2022-10-20T13:03:00.276Z,11.22
2022-10-20T13:06:44.976Z,11.21
2022-10-20T13:10:01.811Z,11.23
2022-10-20T13:14:03.055Z,11.23
2022-10-20T13:17:21.677Z,11.16
2022-10-20T13:20:40.553Z,11.10
2022-10-20T13:23:49.082Z,11.09
2022-10-20T13:26:59.854Z,11.05
2022-10-20T13:30:10.952Z,11.00
2022-10-20T13:33:38.389Z,10.99
2022-10-20T13:37:10.899Z,10.99
2022-10-20T13:40:24.360Z,11.00
2022-10-20T13:43:39.155Z,10.95
2022-10-20T13:46:58.145Z,10.91
2022-10-20T13:50:08.559Z,10.90
2022-10-20T13:53:23.043Z,10.91
2022-10-20T13:56:35.656Z,10.87
2022-10-20T13:59:55.643Z,10.81
2022-10-20T14:03:04.469Z,10.78
2022-10-20T14:06:32.500Z,10.75
2022-10-20T14:09:40.615Z,10.73
2022-10-20T14:12:49.828Z,10.73
2022-10-20T14:15:55.750Z,10.71
2022-10-20T14:19:03.498Z,10.68
2022-10-20T14:22:23.074Z,10.65
2022-10-20T14:25:31.485Z,10.64
2022-10-20T14:28:40.109Z,10.60
2022-10-20T14:31:46.857Z,10.54
2022-10-20T14:35:00.726Z,10.47
2022-10-20T14:38:16.988Z,10.43
2022-10-20T14:41:30.861Z,10.37
2022-10-20T14:44:36.881Z,10.31
2022-10-20T14:47:44.183Z,10.28
2022-10-20T14:50:50.369Z,10.23
2022-10-20T14:54:14.431Z,10.16
2022-10-20T14:57:45.976Z,10.10
2022-10-20T15:00:51.745Z,9.99
2022-10-20T15:04:14.394Z,9.89
2022-10-20T15:07:23.630Z,9.79
2022-10-20T15:10:32.042Z,9.70
2022-10-20T15:13:38.349Z,9.59
2022-10-20T15:16:47.460Z,9.47
2022-10-20T15:19:53.205Z,9.37
2022-10-20T15:22:59.995Z,9.27
2022-10-20T15:26:11.393Z,9.14
2022-10-20T15:29:17.153Z,9.03
2022-10-20T15:32:22.873Z,8.93
2022-10-20T15:35:31.026Z,8.82
2022-10-20T15:38:36.684Z,8.71
2022-10-20T15:41:42.860Z,8.62
2022-10-20T15:44:48.552Z,8.53
2022-10-20T15:47:54.204Z,8.43
2022-10-20T15:51:00.261Z,8.33
2022-10-20T15:54:06.088Z,8.20
2022-10-20T15:57:11.813Z,8.08
2022-10-20T16:00:18.720Z,7.98
2022-10-20T16:03:24.409Z,7.89
2022-10-20T16:06:30.162Z,7.79
2022-10-20T16:09:35.918Z,7.70
2022-10-20T16:12:42.082Z,7.62
2022-10-20T16:15:47.721Z,7.53
2022-10-20T16:18:53.488Z,7.46
2022-10-20T16:21:59.243Z,7.39
2022-10-20T16:25:05.950Z,7.30
2022-10-20T16:28:12.105Z,7.23
2022-10-20T16:31:18.777Z,7.16
2022-10-20T16:34:24.470Z,7.09
2022-10-20T16:37:31.391Z,7.01
2022-10-20T16:40:37.147Z,6.92
2022-10-20T16:43:45.462Z,6.82
2022-10-20T16:46:51.213Z,6.74
2022-10-20T16:49:57.276Z,6.66
2022-10-20T16:53:03.071Z,6.58
2022-10-20T16:56:10.424Z,6.48
2022-10-20T16:59:16.177Z,6.39
2022-10-20T17:02:23.369Z,6.32
2022-10-20T17:05:29.118Z,6.24
2022-10-20T17:08:36.075Z,6.18
2022-10-20T17:11:41.976Z,6.13
2022-10-20T17:14:47.670Z,6.10
2022-10-20T17:17:53.320Z,6.06
2022-10-20T17:20:59.016Z,6.01
2022-10-20T17:24:04.845Z,5.95
2022-10-20T17:27:11.560Z,5.88
2022-10-20T17:30:17.603Z,5.83
2022-10-20T17:33:24.388Z,5.78
2022-10-20T17:36:31.365Z,5.69
2022-10-20T17:39:37.637Z,5.57
2022-10-20T17:42:43.289Z,5.47
2022-10-20T17:45:58.190Z,5.40
2022-10-20T17:49:04.380Z,5.36
2022-10-20T17:52:10.015Z,5.26
2022-10-20T17:55:15.913Z,5.14
2022-10-20T17:58:21.674Z,5.05
2022-10-20T18:01:29.839Z,4.97
2022-10-20T18:04:36.061Z,4.90
2022-10-20T18:07:41.917Z,4.85
2022-10-20T18:10:49.207Z,4.81
2022-10-20T18:13:56.602Z,4.74
2022-10-20T18:17:02.457Z,4.65
2022-10-20T18:20:09.820Z,4.62
2022-10-20T18:23:15.434Z,4.61
2022-10-20T18:26:22.422Z,4.53
2022-10-20T18:29:28.546Z,4.44
2022-10-20T18:32:36.257Z,4.37
2022-10-20T18:35:42.248Z,4.34
2022-10-20T18:38:48.675Z,4.28
2022-10-20T18:41:55.745Z,4.22
2022-10-20T18:45:01.516Z,4.14
2022-10-20T18:48:08.640Z,4.07
2022-10-20T18:51:15.289Z,4.02
2022-10-20T18:54:23.727Z,4.01
2022-10-20T18:57:31.597Z,3.94
2022-10-20T19:00:37.406Z,3.85
2022-10-20T19:03:46.281Z,3.81
2022-10-20T19:06:52.283Z,3.76
2022-10-20T19:09:57.998Z,3.71
2022-10-20T19:13:03.663Z,3.73
2022-10-20T19:16:12.572Z,3.74
2022-10-20T19:19:18.635Z,3.66
2022-10-20T19:22:27.039Z,3.55
2022-10-20T19:25:35.265Z,3.51
2022-10-20T19:28:43.933Z,3.48
2022-10-20T19:31:52.318Z,3.45
2022-10-20T19:34:58.057Z,3.40
2022-10-20T19:38:03.814Z,3.29
2022-10-20T19:41:10.049Z,3.17
2022-10-20T19:44:16.234Z,3.10
2022-10-20T19:47:21.994Z,3.04
2022-10-20T19:50:27.779Z,2.97
2022-10-20T19:53:35.161Z,2.90
2022-10-20T19:56:41.509Z,2.85
2022-10-20T19:59:45.661Z,2.82
2022-10-20T20:02:51.379Z,2.79
2022-10-20T20:06:01.912Z,2.75
2022-10-20T20:09:10.624Z,2.78
2022-10-20T20:12:16.321Z,2.79
2022-10-20T20:15:22.177Z,2.73
2022-10-20T20:18:27.932Z,2.71
2022-10-20T20:21:33.802Z,2.71
2022-10-20T20:24:39.954Z,2.64
2022-10-20T20:27:45.709Z,2.63
2022-10-20T20:31:04.177Z,2.65
2022-10-20T20:34:09.912Z,2.65
2022-10-20T20:37:15.670Z,2.59
2022-10-20T20:40:21.751Z,2.52
2022-10-20T20:43:28.245Z,2.51
2022-10-20T20:46:34.316Z,2.50
2022-10-20T20:49:39.981Z,2.46
2022-10-20T20:52:45.871Z,2.41
2022-10-20T20:55:59.265Z,2.30
2022-10-20T20:59:05.313Z,2.21
2022-10-20T21:02:12.092Z,2.14
2022-10-20T21:05:17.984Z,2.09
2022-10-20T21:08:23.858Z,2.07
2022-10-20T21:11:30.026Z,2.02
2022-10-20T21:14:35.778Z,1.97
2022-10-20T21:17:41.502Z,1.94
2022-10-20T21:20:47.183Z,1.90
2022-10-20T21:23:53.557Z,1.85
2022-10-20T21:26:57.679Z,1.83
2022-10-20T21:30:03.523Z,1.82
2022-10-20T21:33:09.147Z,1.79
2022-10-20T21:36:16.979Z,1.75
2022-10-20T21:39:22.813Z,1.71
2022-10-20T21:42:28.513Z,1.66
2022-10-20T21:45:34.241Z,1.62
2022-10-20T21:48:39.996Z,1.57
2022-10-20T21:51:47.898Z,1.55
2022-10-20T21:54:53.582Z,1.53
2022-10-20T21:57:59.304Z,1.52
2022-10-20T22:01:11.369Z,1.53
2022-10-20T22:04:18.083Z,1.55
2022-10-20T22:07:24.041Z,1.50
2022-10-20T22:10:29.796Z,1.45
2022-10-20T22:13:35.847Z,1.40
2022-10-20T22:16:43.660Z,1.36
2022-10-20T22:19:50.438Z,1.31
2022-10-20T22:22:56.091Z,1.28
2022-10-20T22:26:01.941Z,1.19
2022-10-20T22:29:10.053Z,1.09
2022-10-20T22:32:15.810Z,1.12
2022-10-20T22:35:21.427Z,1.13
2022-10-20T22:38:27.222Z,1.13
2022-10-20T22:41:32.875Z,1.15
2022-10-20T22:44:38.622Z,1.19
2022-10-20T22:47:44.376Z,1.15
2022-10-20T22:50:50.328Z,1.10
2022-10-20T22:53:55.986Z,1.11
2022-10-20T22:57:01.640Z,1.10
2022-10-20T23:00:09.512Z,1.08
2022-10-20T23:03:15.155Z,1.08
2022-10-20T23:06:22.388Z,1.05
2022-10-20T23:09:28.138Z,1.03
2022-10-20T23:12:34.658Z,1.01
2022-10-20T23:15:40.559Z,0.97
2022-10-20T23:18:46.426Z,0.96
2022-10-20T23:21:54.088Z,0.94
2022-10-20T23:24:59.775Z,0.93
2022-10-20T23:28:05.735Z,0.94
2022-10-20T23:31:13.879Z,0.90
2022-10-20T23:34:19.597Z,0.84
2022-10-20T23:37:25.454Z,0.83
2022-10-20T23:40:31.518Z,0.82
2022-10-20T23:43:37.589Z,0.80
2022-10-20T23:46:44.051Z,0.78
2022-10-20T23:49:49.693Z,0.76
2022-10-20T23:52:55.454Z,0.74
2022-10-20T23:56:01.210Z,0.72
2022-10-20T23:59:07.268Z,0.71
